sensor_id;sensor_type;location;lat;lon;timestamp;P1;durP1;ratioP1;P2;durP2;ratioP2
11496;SDS011;5805;51.542;7.230;2023-07-30T00:02:05;3.20;;;2.08;;
11496;SDS011;5805;51.542;7.230;2023-07-30T00:04:31;4.88;;;2.30;;
11496;SDS011;5805;51.542;7.230;2023-07-30T00:06:58;5.28;;;2.42;;
11496;SDS011;5805;51.542;7.230;2023-07-30T00:09:24;3.22;;;2.47;;
11496;SDS011;5805;51.542;7.230;2023-07-30T00:11:49;4.80;;;2.35;;
11496;SDS011;5805;51.542;7.230;2023-07-30T00:14:15;3.35;;;2.38;;
11496;SDS011;5805;51.542;7.230;2023-07-30T00:16:41;8.18;;;2.58;;
11496;SDS011;5805;51.542;7.230;2023-07-30T00:19:06;4.05;;;2.50;;
11496;SDS011;5805;51.542;7.230;2023-07-30T00:21:32;4.35;;;2.88;;
11496;SDS011;5805;51.542;7.230;2023-07-30T00:23:59;7.13;;;2.78;;
11496;SDS011;5805;51.542;7.230;2023-07-30T00:26:24;3.95;;;2.70;;
11496;SDS011;5805;51.542;7.230;2023-07-30T00:28:50;6.88;;;2.53;;
11496;SDS011;5805;51.542;7.230;2023-07-30T00:31:16;8.77;;;2.75;;
11496;SDS011;5805;51.542;7.230;2023-07-30T00:33:41;9.15;;;2.53;;
11496;SDS011;5805;51.542;7.230;2023-07-30T00:36:07;6.03;;;2.38;;
11496;SDS011;5805;51.542;7.230;2023-07-30T00:38:33;8.07;;;2.92;;
11496;SDS011;5805;51.542;7.230;2023-07-30T00:41:00;5.53;;;2.40;;
11496;SDS011;5805;51.542;7.230;2023-07-30T00:43:25;3.83;;;2.47;;
11496;SDS011;5805;51.542;7.230;2023-07-30T00:45:51;7.60;;;3.05;;
11496;SDS011;5805;51.542;7.230;2023-07-30T00:48:17;6.68;;;3.00;;
11496;SDS011;5805;51.542;7.230;2023-07-30T00:50:43;5.55;;;2.50;;
11496;SDS011;5805;51.542;7.230;2023-07-30T00:53:09;5.80;;;2.95;;
11496;SDS011;5805;51.542;7.230;2023-07-30T00:55:38;5.97;;;2.60;;
11496;SDS011;5805;51.542;7.230;2023-07-30T00:58:06;5.43;;;2.55;;
11496;SDS011;5805;51.542;7.230;2023-07-30T01:00:32;5.53;;;2.40;;
11496;SDS011;5805;51.542;7.230;2023-07-30T01:02:57;3.97;;;2.17;;
11496;SDS011;5805;51.542;7.230;2023-07-30T01:05:24;6.57;;;2.30;;
11496;SDS011;5805;51.542;7.230;2023-07-30T01:07:50;4.90;;;2.53;;
11496;SDS011;5805;51.542;7.230;2023-07-30T01:10:16;9.60;;;2.78;;
11496;SDS011;5805;51.542;7.230;2023-07-30T01:12:42;5.82;;;2.42;;
11496;SDS011;5805;51.542;7.230;2023-07-30T01:15:10;4.45;;;2.42;;
11496;SDS011;5805;51.542;7.230;2023-07-30T01:17:37;4.32;;;2.30;;
11496;SDS011;5805;51.542;7.230;2023-07-30T01:20:03;5.35;;;2.28;;
11496;SDS011;5805;51.542;7.230;2023-07-30T01:22:31;3.80;;;2.25;;
11496;SDS011;5805;51.542;7.230;2023-07-30T01:24:57;7.82;;;2.33;;
11496;SDS011;5805;51.542;7.230;2023-07-30T01:27:23;6.82;;;2.78;;
11496;SDS011;5805;51.542;7.230;2023-07-30T01:29:51;3.53;;;2.50;;
11496;SDS011;5805;51.542;7.230;2023-07-30T01:32:18;7.57;;;3.40;;
11496;SDS011;5805;51.542;7.230;2023-07-30T01:34:48;6.55;;;2.55;;
11496;SDS011;5805;51.542;7.230;2023-07-30T01:37:17;7.43;;;2.70;;
11496;SDS011;5805;51.542;7.230;2023-07-30T01:39:44;8.27;;;2.80;;
11496;SDS011;5805;51.542;7.230;2023-07-30T01:42:12;4.63;;;2.75;;
11496;SDS011;5805;51.542;7.230;2023-07-30T01:44:38;5.10;;;2.42;;
11496;SDS011;5805;51.542;7.230;2023-07-30T01:47:04;5.15;;;2.60;;
11496;SDS011;5805;51.542;7.230;2023-07-30T01:49:29;4.00;;;2.38;;
11496;SDS011;5805;51.542;7.230;2023-07-30T01:51:55;6.32;;;2.60;;
11496;SDS011;5805;51.542;7.230;2023-07-30T01:54:21;5.95;;;2.30;;
11496;SDS011;5805;51.542;7.230;2023-07-30T01:56:48;9.07;;;2.88;;
11496;SDS011;5805;51.542;7.230;2023-07-30T01:59:14;7.45;;;2.63;;
11496;SDS011;5805;51.542;7.230;2023-07-30T02:01:40;6.80;;;3.08;;
11496;SDS011;5805;51.542;7.230;2023-07-30T02:04:05;5.93;;;2.67;;
11496;SDS011;5805;51.542;7.230;2023-07-30T02:06:31;6.00;;;2.47;;
11496;SDS011;5805;51.542;7.230;2023-07-30T02:08:57;8.55;;;2.55;;
11496;SDS011;5805;51.542;7.230;2023-07-30T02:11:22;5.95;;;2.50;;
11496;SDS011;5805;51.542;7.230;2023-07-30T02:13:49;5.90;;;2.60;;
11496;SDS011;5805;51.542;7.230;2023-07-30T02:16:15;5.13;;;2.78;;
11496;SDS011;5805;51.542;7.230;2023-07-30T02:18:41;8.40;;;2.80;;
11496;SDS011;5805;51.542;7.230;2023-07-30T02:21:06;6.82;;;3.17;;
11496;SDS011;5805;51.542;7.230;2023-07-30T02:23:32;5.15;;;2.67;;
11496;SDS011;5805;51.542;7.230;2023-07-30T02:25:58;6.20;;;2.35;;
11496;SDS011;5805;51.542;7.230;2023-07-30T02:28:23;5.80;;;2.72;;
11496;SDS011;5805;51.542;7.230;2023-07-30T02:30:50;6.13;;;2.63;;
11496;SDS011;5805;51.542;7.230;2023-07-30T02:33:16;8.32;;;2.75;;
11496;SDS011;5805;51.542;7.230;2023-07-30T02:35:42;5.82;;;2.42;;
11496;SDS011;5805;51.542;7.230;2023-07-30T02:38:08;5.20;;;2.70;;
11496;SDS011;5805;51.542;7.230;2023-07-30T02:40:34;5.03;;;2.13;;
11496;SDS011;5805;51.542;7.230;2023-07-30T02:42:59;2.92;;;2.13;;
11496;SDS011;5805;51.542;7.230;2023-07-30T02:45:25;5.13;;;2.30;;
11496;SDS011;5805;51.542;7.230;2023-07-30T02:47:52;5.13;;;2.97;;
11496;SDS011;5805;51.542;7.230;2023-07-30T02:50:18;5.80;;;2.78;;
11496;SDS011;5805;51.542;7.230;2023-07-30T02:52:44;4.70;;;2.40;;
11496;SDS011;5805;51.542;7.230;2023-07-30T02:55:10;6.28;;;2.70;;
11496;SDS011;5805;51.542;7.230;2023-07-30T02:57:35;6.53;;;2.55;;
11496;SDS011;5805;51.542;7.230;2023-07-30T03:00:02;7.55;;;2.42;;
11496;SDS011;5805;51.542;7.230;2023-07-30T03:02:28;7.32;;;2.80;;
11496;SDS011;5805;51.542;7.230;2023-07-30T03:04:55;5.10;;;2.90;;
11496;SDS011;5805;51.542;7.230;2023-07-30T03:07:21;5.15;;;2.70;;
11496;SDS011;5805;51.542;7.230;2023-07-30T03:09:46;5.95;;;2.90;;
11496;SDS011;5805;51.542;7.230;2023-07-30T03:12:12;10.32;;;3.00;;
11496;SDS011;5805;51.542;7.230;2023-07-30T03:14:38;6.95;;;2.40;;
11496;SDS011;5805;51.542;7.230;2023-07-30T03:17:04;7.82;;;3.03;;
11496;SDS011;5805;51.542;7.230;2023-07-30T03:19:30;5.07;;;2.88;;
11496;SDS011;5805;51.542;7.230;2023-07-30T03:21:57;6.90;;;2.60;;
11496;SDS011;5805;51.542;7.230;2023-07-30T03:24:22;6.53;;;3.28;;
11496;SDS011;5805;51.542;7.230;2023-07-30T03:26:48;8.73;;;2.65;;
11496;SDS011;5805;51.542;7.230;2023-07-30T03:29:14;6.05;;;3.03;;
11496;SDS011;5805;51.542;7.230;2023-07-30T03:31:40;8.40;;;2.67;;
11496;SDS011;5805;51.542;7.230;2023-07-30T03:34:05;7.68;;;2.72;;
11496;SDS011;5805;51.542;7.230;2023-07-30T03:36:31;7.22;;;3.22;;
11496;SDS011;5805;51.542;7.230;2023-07-30T03:38:58;4.30;;;2.40;;
11496;SDS011;5805;51.542;7.230;2023-07-30T03:41:24;3.92;;;2.75;;
11496;SDS011;5805;51.542;7.230;2023-07-30T03:43:50;5.90;;;3.13;;
11496;SDS011;5805;51.542;7.230;2023-07-30T03:46:15;10.73;;;2.67;;
11496;SDS011;5805;51.542;7.230;2023-07-30T03:48:41;6.60;;;2.63;;
11496;SDS011;5805;51.542;7.230;2023-07-30T03:51:07;6.10;;;2.80;;
11496;SDS011;5805;51.542;7.230;2023-07-30T03:53:33;5.15;;;2.35;;
11496;SDS011;5805;51.542;7.230;2023-07-30T03:56:00;4.07;;;2.33;;
11496;SDS011;5805;51.542;7.230;2023-07-30T03:58:26;8.52;;;3.05;;
11496;SDS011;5805;51.542;7.230;2023-07-30T04:00:51;5.80;;;2.25;;
11496;SDS011;5805;51.542;7.230;2023-07-30T04:03:17;6.82;;;2.65;;
11496;SDS011;5805;51.542;7.230;2023-07-30T04:05:43;5.03;;;2.50;;
11496;SDS011;5805;51.542;7.230;2023-07-30T04:08:08;9.15;;;3.38;;
11496;SDS011;5805;51.542;7.230;2023-07-30T04:10:34;7.60;;;3.08;;
11496;SDS011;5805;51.542;7.230;2023-07-30T04:13:01;6.97;;;2.67;;
11496;SDS011;5805;51.542;7.230;2023-07-30T04:15:27;8.05;;;2.95;;
11496;SDS011;5805;51.542;7.230;2023-07-30T04:17:53;8.50;;;2.83;;
11496;SDS011;5805;51.542;7.230;2023-07-30T04:20:18;6.55;;;2.63;;
11496;SDS011;5805;51.542;7.230;2023-07-30T04:22:44;5.90;;;2.80;;
11496;SDS011;5805;51.542;7.230;2023-07-30T04:25:10;9.50;;;3.13;;
11496;SDS011;5805;51.542;7.230;2023-07-30T04:27:36;5.65;;;2.80;;
11496;SDS011;5805;51.542;7.230;2023-07-30T04:30:03;6.55;;;2.92;;
11496;SDS011;5805;51.542;7.230;2023-07-30T04:32:29;9.20;;;2.50;;
11496;SDS011;5805;51.542;7.230;2023-07-30T04:34:55;5.00;;;2.67;;
11496;SDS011;5805;51.542;7.230;2023-07-30T04:37:20;6.93;;;2.70;;
11496;SDS011;5805;51.542;7.230;2023-07-30T04:39:47;9.88;;;3.42;;
11496;SDS011;5805;51.542;7.230;2023-07-30T04:42:13;8.18;;;3.40;;
11496;SDS011;5805;51.542;7.230;2023-07-30T04:44:38;6.05;;;2.65;;
11496;SDS011;5805;51.542;7.230;2023-07-30T04:47:06;6.40;;;2.85;;
11496;SDS011;5805;51.542;7.230;2023-07-30T04:49:31;10.05;;;2.53;;
11496;SDS011;5805;51.542;7.230;2023-07-30T04:51:57;4.38;;;2.65;;
11496;SDS011;5805;51.542;7.230;2023-07-30T04:54:23;6.80;;;2.80;;
11496;SDS011;5805;51.542;7.230;2023-07-30T04:56:48;4.57;;;2.75;;
11496;SDS011;5805;51.542;7.230;2023-07-30T04:59:14;5.90;;;2.63;;
11496;SDS011;5805;51.542;7.230;2023-07-30T05:01:40;9.05;;;3.00;;
11496;SDS011;5805;51.542;7.230;2023-07-30T05:04:07;7.63;;;2.70;;
11496;SDS011;5805;51.542;7.230;2023-07-30T05:06:32;5.97;;;2.80;;
11496;SDS011;5805;51.542;7.230;2023-07-30T05:08:58;7.10;;;2.65;;
11496;SDS011;5805;51.542;7.230;2023-07-30T05:11:24;7.80;;;2.60;;
11496;SDS011;5805;51.542;7.230;2023-07-30T05:13:49;9.25;;;3.10;;
11496;SDS011;5805;51.542;7.230;2023-07-30T05:16:15;10.75;;;2.65;;
11496;SDS011;5805;51.542;7.230;2023-07-30T05:18:41;7.43;;;2.63;;
11496;SDS011;5805;51.542;7.230;2023-07-30T05:21:08;10.48;;;3.08;;
11496;SDS011;5805;51.542;7.230;2023-07-30T05:23:33;6.38;;;2.60;;
11496;SDS011;5805;51.542;7.230;2023-07-30T05:25:59;11.00;;;3.17;;
11496;SDS011;5805;51.542;7.230;2023-07-30T05:28:25;8.02;;;3.22;;
11496;SDS011;5805;51.542;7.230;2023-07-30T05:30:51;8.65;;;3.42;;
11496;SDS011;5805;51.542;7.230;2023-07-30T05:33:17;6.32;;;2.95;;
11496;SDS011;5805;51.542;7.230;2023-07-30T05:35:42;9.07;;;2.80;;
11496;SDS011;5805;51.542;7.230;2023-07-30T05:38:09;6.75;;;3.30;;
11496;SDS011;5805;51.542;7.230;2023-07-30T05:40:35;9.80;;;3.00;;
11496;SDS011;5805;51.542;7.230;2023-07-30T05:43:01;8.68;;;2.78;;
11496;SDS011;5805;51.542;7.230;2023-07-30T05:45:26;7.22;;;2.90;;
11496;SDS011;5805;51.542;7.230;2023-07-30T05:47:52;11.13;;;3.25;;
11496;SDS011;5805;51.542;7.230;2023-07-30T05:50:18;7.70;;;3.17;;
11496;SDS011;5805;51.542;7.230;2023-07-30T05:52:43;9.40;;;2.95;;
11496;SDS011;5805;51.542;7.230;2023-07-30T05:55:11;10.77;;;3.13;;
11496;SDS011;5805;51.542;7.230;2023-07-30T05:57:36;9.75;;;3.00;;
11496;SDS011;5805;51.542;7.230;2023-07-30T06:00:02;8.57;;;3.20;;
11496;SDS011;5805;51.542;7.230;2023-07-30T06:02:28;14.13;;;3.40;;
11496;SDS011;5805;51.542;7.230;2023-07-30T06:04:54;9.30;;;3.35;;
11496;SDS011;5805;51.542;7.230;2023-07-30T06:07:20;9.95;;;2.85;;
11496;SDS011;5805;51.542;7.230;2023-07-30T06:09:45;9.48;;;3.25;;
11496;SDS011;5805;51.542;7.230;2023-07-30T06:12:12;7.15;;;2.92;;
11496;SDS011;5805;51.542;7.230;2023-07-30T06:14:38;9.38;;;3.50;;
11496;SDS011;5805;51.542;7.230;2023-07-30T06:17:04;10.43;;;3.67;;
11496;SDS011;5805;51.542;7.230;2023-07-30T06:19:29;12.10;;;3.75;;
11496;SDS011;5805;51.542;7.230;2023-07-30T06:21:55;8.90;;;3.58;;
11496;SDS011;5805;51.542;7.230;2023-07-30T06:24:21;11.95;;;3.00;;
11496;SDS011;5805;51.542;7.230;2023-07-30T06:26:46;12.60;;;3.80;;
11496;SDS011;5805;51.542;7.230;2023-07-30T06:29:13;15.65;;;3.30;;
11496;SDS011;5805;51.542;7.230;2023-07-30T06:31:39;10.13;;;3.17;;
11496;SDS011;5805;51.542;7.230;2023-07-30T06:34:05;9.77;;;3.13;;
11496;SDS011;5805;51.542;7.230;2023-07-30T06:36:30;11.02;;;4.10;;
11496;SDS011;5805;51.542;7.230;2023-07-30T06:38:56;11.43;;;3.40;;
11496;SDS011;5805;51.542;7.230;2023-07-30T06:41:22;6.28;;;3.50;;
11496;SDS011;5805;51.542;7.230;2023-07-30T06:43:48;8.63;;;3.65;;
11496;SDS011;5805;51.542;7.230;2023-07-30T06:46:15;9.68;;;3.92;;
11496;SDS011;5805;51.542;7.230;2023-07-30T06:48:40;8.85;;;4.15;;
11496;SDS011;5805;51.542;7.230;2023-07-30T06:51:06;13.77;;;3.78;;
11496;SDS011;5805;51.542;7.230;2023-07-30T06:53:32;7.82;;;3.55;;
11496;SDS011;5805;51.542;7.230;2023-07-30T06:55:58;8.35;;;3.30;;
11496;SDS011;5805;51.542;7.230;2023-07-30T06:58:24;8.98;;;3.30;;
11496;SDS011;5805;51.542;7.230;2023-07-30T07:00:49;8.32;;;3.17;;
11496;SDS011;5805;51.542;7.230;2023-07-30T07:03:17;7.25;;;2.97;;
11496;SDS011;5805;51.542;7.230;2023-07-30T07:05:42;9.30;;;2.95;;
11496;SDS011;5805;51.542;7.230;2023-07-30T07:08:08;7.25;;;2.80;;
11496;SDS011;5805;51.542;7.230;2023-07-30T07:10:34;6.13;;;2.85;;
11496;SDS011;5805;51.542;7.230;2023-07-30T07:12:59;11.55;;;2.97;;
11496;SDS011;5805;51.542;7.230;2023-07-30T07:15:25;5.30;;;3.00;;
11496;SDS011;5805;51.542;7.230;2023-07-30T07:17:51;8.90;;;3.30;;
11496;SDS011;5805;51.542;7.230;2023-07-30T07:20:18;9.30;;;3.17;;
11496;SDS011;5805;51.542;7.230;2023-07-30T07:22:43;8.52;;;3.30;;
11496;SDS011;5805;51.542;7.230;2023-07-30T07:25:09;10.43;;;3.75;;
11496;SDS011;5805;51.542;7.230;2023-07-30T07:27:35;10.13;;;3.00;;
11496;SDS011;5805;51.542;7.230;2023-07-30T07:30:00;7.95;;;2.97;;
11496;SDS011;5805;51.542;7.230;2023-07-30T07:32:26;7.03;;;2.65;;
11496;SDS011;5805;51.542;7.230;2023-07-30T07:34:52;9.82;;;2.70;;
11496;SDS011;5805;51.542;7.230;2023-07-30T07:37:19;8.10;;;2.50;;
11496;SDS011;5805;51.542;7.230;2023-07-30T07:39:45;11.20;;;2.85;;
11496;SDS011;5805;51.542;7.230;2023-07-30T07:42:11;7.22;;;2.50;;
11496;SDS011;5805;51.542;7.230;2023-07-30T07:44:37;7.55;;;2.72;;
11496;SDS011;5805;51.542;7.230;2023-07-30T07:47:03;6.57;;;2.08;;
11496;SDS011;5805;51.542;7.230;2023-07-30T07:49:28;7.97;;;2.60;;
11496;SDS011;5805;51.542;7.230;2023-07-30T07:51:54;5.25;;;2.78;;
11496;SDS011;5805;51.542;7.230;2023-07-30T07:54:21;5.90;;;2.28;;
11496;SDS011;5805;51.542;7.230;2023-07-30T07:56:47;9.23;;;2.30;;
11496;SDS011;5805;51.542;7.230;2023-07-30T07:59:13;7.72;;;2.60;;
11496;SDS011;5805;51.542;7.230;2023-07-30T08:01:38;7.20;;;2.55;;
11496;SDS011;5805;51.542;7.230;2023-07-30T08:04:04;10.88;;;2.20;;
11496;SDS011;5805;51.542;7.230;2023-07-30T08:06:31;6.20;;;2.20;;
11496;SDS011;5805;51.542;7.230;2023-07-30T08:08:57;7.28;;;2.08;;
11496;SDS011;5805;51.542;7.230;2023-07-30T08:11:24;11.20;;;2.78;;
11496;SDS011;5805;51.542;7.230;2023-07-30T08:13:49;8.80;;;2.85;;
11496;SDS011;5805;51.542;7.230;2023-07-30T08:16:15;6.68;;;2.50;;
11496;SDS011;5805;51.542;7.230;2023-07-30T08:18:41;8.65;;;2.83;;
11496;SDS011;5805;51.542;7.230;2023-07-30T08:21:06;9.00;;;2.45;;
11496;SDS011;5805;51.542;7.230;2023-07-30T08:23:32;5.03;;;2.22;;
11496;SDS011;5805;51.542;7.230;2023-07-30T08:25:57;11.10;;;2.60;;
11496;SDS011;5805;51.542;7.230;2023-07-30T08:28:25;13.55;;;3.05;;
11496;SDS011;5805;51.542;7.230;2023-07-30T08:30:50;8.82;;;2.88;;
11496;SDS011;5805;51.542;7.230;2023-07-30T08:33:16;9.30;;;2.80;;
11496;SDS011;5805;51.542;7.230;2023-07-30T08:35:42;10.23;;;3.00;;
11496;SDS011;5805;51.542;7.230;2023-07-30T08:38:07;6.55;;;3.28;;
11496;SDS011;5805;51.542;7.230;2023-07-30T08:40:33;7.00;;;2.85;;
11496;SDS011;5805;51.542;7.230;2023-07-30T08:42:59;7.18;;;2.33;;
11496;SDS011;5805;51.542;7.230;2023-07-30T08:45:27;7.75;;;2.80;;
11496;SDS011;5805;51.542;7.230;2023-07-30T08:47:53;8.80;;;2.80;;
11496;SDS011;5805;51.542;7.230;2023-07-30T08:50:18;8.50;;;3.08;;
11496;SDS011;5805;51.542;7.230;2023-07-30T08:52:44;8.07;;;2.90;;
11496;SDS011;5805;51.542;7.230;2023-07-30T08:55:11;7.45;;;2.80;;
11496;SDS011;5805;51.542;7.230;2023-07-30T08:57:38;9.07;;;3.08;;
11496;SDS011;5805;51.542;7.230;2023-07-30T09:00:06;9.20;;;3.50;;
11496;SDS011;5805;51.542;7.230;2023-07-30T09:02:37;7.55;;;2.53;;
11496;SDS011;5805;51.542;7.230;2023-07-30T09:05:06;8.77;;;2.78;;
11496;SDS011;5805;51.542;7.230;2023-07-30T09:07:32;11.35;;;2.75;;
11496;SDS011;5805;51.542;7.230;2023-07-30T09:09:58;10.82;;;3.20;;
11496;SDS011;5805;51.542;7.230;2023-07-30T09:12:25;8.23;;;2.92;;
11496;SDS011;5805;51.542;7.230;2023-07-30T09:14:53;10.85;;;3.60;;
11496;SDS011;5805;51.542;7.230;2023-07-30T09:17:19;6.68;;;2.50;;
11496;SDS011;5805;51.542;7.230;2023-07-30T09:19:46;9.55;;;2.92;;
11496;SDS011;5805;51.542;7.230;2023-07-30T09:22:12;8.20;;;3.30;;
11496;SDS011;5805;51.542;7.230;2023-07-30T09:24:40;9.98;;;3.00;;
11496;SDS011;5805;51.542;7.230;2023-07-30T09:27:08;9.73;;;3.38;;
11496;SDS011;5805;51.542;7.230;2023-07-30T09:29:33;9.27;;;2.90;;
11496;SDS011;5805;51.542;7.230;2023-07-30T09:31:59;7.57;;;3.03;;
11496;SDS011;5805;51.542;7.230;2023-07-30T09:34:25;11.85;;;3.15;;
11496;SDS011;5805;51.542;7.230;2023-07-30T09:36:52;10.85;;;3.30;;
11496;SDS011;5805;51.542;7.230;2023-07-30T09:39:19;8.32;;;2.47;;
11496;SDS011;5805;51.542;7.230;2023-07-30T09:41:46;10.57;;;2.75;;
11496;SDS011;5805;51.542;7.230;2023-07-30T09:44:12;12.30;;;2.78;;
11496;SDS011;5805;51.542;7.230;2023-07-30T09:46:47;9.30;;;2.90;;
11496;SDS011;5805;51.542;7.230;2023-07-30T09:49:14;9.45;;;3.20;;
11496;SDS011;5805;51.542;7.230;2023-07-30T09:51:40;6.50;;;2.53;;
11496;SDS011;5805;51.542;7.230;2023-07-30T09:54:08;8.48;;;2.58;;
11496;SDS011;5805;51.542;7.230;2023-07-30T09:56:35;10.43;;;2.80;;
11496;SDS011;5805;51.542;7.230;2023-07-30T09:59:02;5.32;;;2.47;;
11496;SDS011;5805;51.542;7.230;2023-07-30T10:01:28;7.47;;;2.65;;
11496;SDS011;5805;51.542;7.230;2023-07-30T10:03:56;8.73;;;2.13;;
11496;SDS011;5805;51.542;7.230;2023-07-30T10:06:22;7.05;;;2.10;;
11496;SDS011;5805;51.542;7.230;2023-07-30T10:08:50;6.47;;;2.10;;
11496;SDS011;5805;51.542;7.230;2023-07-30T10:11:19;14.27;;;2.80;;
11496;SDS011;5805;51.542;7.230;2023-07-30T10:13:46;8.13;;;2.38;;
11496;SDS011;5805;51.542;7.230;2023-07-30T10:16:12;15.20;;;2.80;;
11496;SDS011;5805;51.542;7.230;2023-07-30T10:18:38;8.43;;;2.55;;
11496;SDS011;5805;51.542;7.230;2023-07-30T10:21:05;9.75;;;2.60;;
11496;SDS011;5805;51.542;7.230;2023-07-30T10:23:33;9.50;;;3.03;;
11496;SDS011;5805;51.542;7.230;2023-07-30T10:25:58;8.20;;;2.28;;
11496;SDS011;5805;51.542;7.230;2023-07-30T10:28:35;8.60;;;2.05;;
11496;SDS011;5805;51.542;7.230;2023-07-30T10:31:01;8.40;;;2.30;;
11496;SDS011;5805;51.542;7.230;2023-07-30T10:33:43;5.95;;;2.10;;
11496;SDS011;5805;51.542;7.230;2023-07-30T10:36:10;6.30;;;2.40;;
11496;SDS011;5805;51.542;7.230;2023-07-30T10:38:36;5.18;;;2.00;;
11496;SDS011;5805;51.542;7.230;2023-07-30T10:41:03;6.18;;;2.03;;
11496;SDS011;5805;51.542;7.230;2023-07-30T10:43:31;9.30;;;2.80;;
11496;SDS011;5805;51.542;7.230;2023-07-30T10:46:00;6.45;;;2.15;;
11496;SDS011;5805;51.542;7.230;2023-07-30T10:48:29;5.75;;;1.90;;
11496;SDS011;5805;51.542;7.230;2023-07-30T10:51:00;6.38;;;2.35;;
11496;SDS011;5805;51.542;7.230;2023-07-30T10:53:26;8.70;;;1.90;;
11496;SDS011;5805;51.542;7.230;2023-07-30T10:55:52;8.55;;;2.40;;
11496;SDS011;5805;51.542;7.230;2023-07-30T10:58:18;5.22;;;1.83;;
11496;SDS011;5805;51.542;7.230;2023-07-30T11:00:45;7.75;;;2.15;;
11496;SDS011;5805;51.542;7.230;2023-07-30T11:03:11;6.20;;;2.17;;
11496;SDS011;5805;51.542;7.230;2023-07-30T11:05:37;7.22;;;2.10;;
11496;SDS011;5805;51.542;7.230;2023-07-30T11:08:03;4.93;;;1.90;;
11496;SDS011;5805;51.542;7.230;2023-07-30T11:10:29;4.90;;;2.20;;
11496;SDS011;5805;51.542;7.230;2023-07-30T11:12:55;5.03;;;1.65;;
11496;SDS011;5805;51.542;7.230;2023-07-30T11:15:22;5.65;;;1.67;;
11496;SDS011;5805;51.542;7.230;2023-07-30T11:17:51;5.60;;;1.52;;
11496;SDS011;5805;51.542;7.230;2023-07-30T11:20:23;7.60;;;2.25;;
11496;SDS011;5805;51.542;7.230;2023-07-30T11:22:49;6.75;;;1.70;;
11496;SDS011;5805;51.542;7.230;2023-07-30T11:25:18;4.40;;;1.90;;
11496;SDS011;5805;51.542;7.230;2023-07-30T11:27:44;8.65;;;2.00;;
11496;SDS011;5805;51.542;7.230;2023-07-30T11:30:10;6.80;;;2.30;;
11496;SDS011;5805;51.542;7.230;2023-07-30T11:32:36;6.97;;;1.95;;
11496;SDS011;5805;51.542;7.230;2023-07-30T11:35:04;8.80;;;1.85;;
11496;SDS011;5805;51.542;7.230;2023-07-30T11:37:32;4.97;;;1.63;;
11496;SDS011;5805;51.542;7.230;2023-07-30T11:39:58;9.00;;;2.45;;
11496;SDS011;5805;51.542;7.230;2023-07-30T11:42:25;3.67;;;1.58;;
11496;SDS011;5805;51.542;7.230;2023-07-30T11:44:51;3.60;;;1.67;;
11496;SDS011;5805;51.542;7.230;2023-07-30T11:47:20;6.63;;;2.05;;
11496;SDS011;5805;51.542;7.230;2023-07-30T11:49:54;5.03;;;2.08;;
11496;SDS011;5805;51.542;7.230;2023-07-30T11:52:21;9.88;;;2.03;;
11496;SDS011;5805;51.542;7.230;2023-07-30T11:54:47;7.72;;;1.92;;
11496;SDS011;5805;51.542;7.230;2023-07-30T11:57:13;6.78;;;2.10;;
11496;SDS011;5805;51.542;7.230;2023-07-30T11:59:38;8.25;;;2.17;;
11496;SDS011;5805;51.542;7.230;2023-07-30T12:02:05;8.15;;;1.80;;
11496;SDS011;5805;51.542;7.230;2023-07-30T12:04:31;5.82;;;1.70;;
11496;SDS011;5805;51.542;7.230;2023-07-30T12:07:08;5.72;;;1.95;;
11496;SDS011;5805;51.542;7.230;2023-07-30T12:09:36;9.65;;;2.35;;
11496;SDS011;5805;51.542;7.230;2023-07-30T12:12:02;5.95;;;1.88;;
11496;SDS011;5805;51.542;7.230;2023-07-30T12:14:28;6.93;;;1.77;;
11496;SDS011;5805;51.542;7.230;2023-07-30T12:17:07;3.50;;;1.90;;
11496;SDS011;5805;51.542;7.230;2023-07-30T12:19:32;4.25;;;1.98;;
11496;SDS011;5805;51.542;7.230;2023-07-30T12:21:58;5.50;;;1.95;;
11496;SDS011;5805;51.542;7.230;2023-07-30T12:24:24;5.05;;;1.50;;
11496;SDS011;5805;51.542;7.230;2023-07-30T12:26:51;4.90;;;1.92;;
11496;SDS011;5805;51.542;7.230;2023-07-30T12:29:16;10.25;;;2.17;;
11496;SDS011;5805;51.542;7.230;2023-07-30T12:31:42;4.80;;;2.08;;
11496;SDS011;5805;51.542;7.230;2023-07-30T12:34:08;5.95;;;1.98;;
11496;SDS011;5805;51.542;7.230;2023-07-30T12:36:33;5.53;;;1.85;;
11496;SDS011;5805;51.542;7.230;2023-07-30T12:38:59;4.38;;;1.90;;
11496;SDS011;5805;51.542;7.230;2023-07-30T12:41:25;3.63;;;1.70;;
11496;SDS011;5805;51.542;7.230;2023-07-30T12:43:52;7.10;;;1.73;;
11496;SDS011;5805;51.542;7.230;2023-07-30T12:46:17;4.72;;;1.73;;
11496;SDS011;5805;51.542;7.230;2023-07-30T12:48:43;3.90;;;1.80;;
11496;SDS011;5805;51.542;7.230;2023-07-30T12:51:09;5.10;;;1.45;;
11496;SDS011;5805;51.542;7.230;2023-07-30T12:53:34;5.28;;;1.55;;
11496;SDS011;5805;51.542;7.230;2023-07-30T12:56:00;8.30;;;1.80;;
11496;SDS011;5805;51.542;7.230;2023-07-30T12:58:26;4.47;;;1.75;;
11496;SDS011;5805;51.542;7.230;2023-07-30T13:00:53;6.00;;;1.83;;
11496;SDS011;5805;51.542;7.230;2023-07-30T13:03:18;4.15;;;1.60;;
11496;SDS011;5805;51.542;7.230;2023-07-30T13:05:44;5.70;;;2.03;;
11496;SDS011;5805;51.542;7.230;2023-07-30T13:08:10;5.60;;;1.80;;
11496;SDS011;5805;51.542;7.230;2023-07-30T13:10:35;5.75;;;1.60;;
11496;SDS011;5805;51.542;7.230;2023-07-30T13:13:01;4.72;;;1.90;;
11496;SDS011;5805;51.542;7.230;2023-07-30T13:15:27;3.65;;;1.52;;
11496;SDS011;5805;51.542;7.230;2023-07-30T13:17:54;4.03;;;1.40;;
11496;SDS011;5805;51.542;7.230;2023-07-30T13:20:20;3.72;;;1.15;;
11496;SDS011;5805;51.542;7.230;2023-07-30T13:22:45;5.82;;;1.33;;
11496;SDS011;5805;51.542;7.230;2023-07-30T13:25:11;4.35;;;1.80;;
11496;SDS011;5805;51.542;7.230;2023-07-30T13:27:37;4.50;;;2.03;;
11496;SDS011;5805;51.542;7.230;2023-07-30T13:30:03;4.13;;;2.05;;
11496;SDS011;5805;51.542;7.230;2023-07-30T13:32:29;4.88;;;1.90;;
11496;SDS011;5805;51.542;7.230;2023-07-30T13:34:56;3.60;;;1.40;;
11496;SDS011;5805;51.542;7.230;2023-07-30T13:37:21;3.90;;;1.38;;
11496;SDS011;5805;51.542;7.230;2023-07-30T13:39:47;3.50;;;1.50;;
11496;SDS011;5805;51.542;7.230;2023-07-30T13:42:13;3.78;;;1.75;;
11496;SDS011;5805;51.542;7.230;2023-07-30T13:44:38;5.57;;;2.10;;
11496;SDS011;5805;51.542;7.230;2023-07-30T13:47:04;5.32;;;1.90;;
11496;SDS011;5805;51.542;7.230;2023-07-30T13:49:30;6.07;;;1.80;;
11496;SDS011;5805;51.542;7.230;2023-07-30T13:51:57;4.55;;;2.00;;
11496;SDS011;5805;51.542;7.230;2023-07-30T13:54:23;6.00;;;1.70;;
11496;SDS011;5805;51.542;7.230;2023-07-30T13:56:49;7.88;;;2.17;;
11496;SDS011;5805;51.542;7.230;2023-07-30T13:59:14;5.57;;;1.50;;
11496;SDS011;5805;51.542;7.230;2023-07-30T14:01:40;5.43;;;1.17;;
11496;SDS011;5805;51.542;7.230;2023-07-30T14:04:06;4.28;;;1.70;;
11496;SDS011;5805;51.542;7.230;2023-07-30T14:06:31;6.95;;;1.83;;
11496;SDS011;5805;51.542;7.230;2023-07-30T14:08:58;3.30;;;1.63;;
11496;SDS011;5805;51.542;7.230;2023-07-30T14:11:25;4.65;;;1.67;;
11496;SDS011;5805;51.542;7.230;2023-07-30T14:13:51;6.10;;;2.05;;
11496;SDS011;5805;51.542;7.230;2023-07-30T14:16:16;3.05;;;1.50;;
11496;SDS011;5805;51.542;7.230;2023-07-30T14:18:42;5.18;;;1.73;;
11496;SDS011;5805;51.542;7.230;2023-07-30T14:21:08;4.72;;;1.70;;
11496;SDS011;5805;51.542;7.230;2023-07-30T14:23:33;6.93;;;2.17;;
11496;SDS011;5805;51.542;7.230;2023-07-30T14:26:00;4.38;;;1.67;;
11496;SDS011;5805;51.542;7.230;2023-07-30T14:28:26;2.40;;;1.40;;
11496;SDS011;5805;51.542;7.230;2023-07-30T14:30:52;3.80;;;1.48;;
11496;SDS011;5805;51.542;7.230;2023-07-30T14:33:17;4.18;;;1.45;;
11496;SDS011;5805;51.542;7.230;2023-07-30T14:35:43;6.85;;;1.75;;
11496;SDS011;5805;51.542;7.230;2023-07-30T14:38:09;6.45;;;1.42;;
11496;SDS011;5805;51.542;7.230;2023-07-30T14:40:34;6.90;;;1.67;;
11496;SDS011;5805;51.542;7.230;2023-07-30T14:43:01;4.80;;;1.70;;
11496;SDS011;5805;51.542;7.230;2023-07-30T14:45:27;4.05;;;1.63;;
11496;SDS011;5805;51.542;7.230;2023-07-30T14:47:53;3.42;;;1.48;;
11496;SDS011;5805;51.542;7.230;2023-07-30T14:50:18;5.68;;;1.63;;
11496;SDS011;5805;51.542;7.230;2023-07-30T14:52:44;3.47;;;1.45;;
11496;SDS011;5805;51.542;7.230;2023-07-30T14:55:10;5.88;;;1.85;;